Maynooth, Canada
Current Conditions -  °F | °C
As of 10:00 PM on Monday 26 Jan 2015 (Local Time) from CYWA Reporting Station
Clear Clear  
Wind Chill: -13°   Ceiling: Unl
Heat Index: -13°   Visibility: 9mi
Dew Point: -20°   Wind: 2mph
Humidity: 70%   Direction: 360°N
Pressure: 30.17"   Gusts: NA
Location:  45.23°N, 77.93°W
Report Text: CYWA 270300Z AUTO 36002KT 9SM CLR M25/M29 A3017 RMK SLP232
Loading
Personal Weather Stations






























Interactive Weather Map New forecast layout! Learn more

10-Day Weather Forecast

Advertisements
Track Severe Weather on mobile